Abrams, Wisconsin
Current Conditions -  °F | °C
As of 10:15 AM on Thursday 23 Oct 2014 (Local Time) from KOCQ Reporting Station
Clear Clear  
Wind Chill: 50°   Ceiling: Unl
Heat Index: 50°   Visibility: 10mi
Dew Point: 39°   Wind: 7mph
Humidity: 66%   Direction: 160°SSE
Pressure: 30.13"   Gusts: NA
Location:  44.78°N, 88.06°W
Report Text: KOCQ 231515Z AUTO 16006KT 10SM CLR 10/04 A3013 RMK AO1 T01000039
Loading
Personal Weather Stations






























Interactive Weather Map New forecast layout! Learn more

10-Day Weather Forecast

Advertisements
Track Severe Weather on mobile